sensor_id;sensor_type;location;lat;lon;timestamp;P1;P2;P0
76330;PMS7003;65148;51.912;15.570;2023-07-16T00:00:59;15;13;13
76330;PMS7003;65148;51.912;15.570;2023-07-16T00:16:00;11;11;10
76330;PMS7003;65148;51.912;15.570;2023-07-16T00:46:39;12;11;10
76330;PMS7003;65148;51.912;15.570;2023-07-16T01:01:40;11;11;9
76330;PMS7003;65148;51.912;15.570;2023-07-16T01:16:57;13;13;10
76330;PMS7003;65148;51.912;15.570;2023-07-16T01:31:59;10;10;9
76330;PMS7003;65148;51.912;15.570;2023-07-16T01:47:23;14;13;12
76330;PMS7003;65148;51.912;15.570;2023-07-16T02:02:35;12;11;10
76330;PMS7003;65148;51.912;15.570;2023-07-16T02:17:36;13;13;10
76330;PMS7003;65148;51.912;15.570;2023-07-16T02:32:37;9;7;7
76330;PMS7003;65148;51.912;15.570;2023-07-16T02:47:38;7;7;6
76330;PMS7003;65148;51.912;15.570;2023-07-16T03:02:57;8;8;8
76330;PMS7003;65148;51.912;15.570;2023-07-16T03:17:59;7;7;6
76330;PMS7003;65148;51.912;15.570;2023-07-16T03:33:00;6;5;5
76330;PMS7003;65148;51.912;15.570;2023-07-16T03:48:01;4;4;4
76330;PMS7003;65148;51.912;15.570;2023-07-16T04:03:19;6;6;5
76330;PMS7003;65148;51.912;15.570;2023-07-16T04:18:21;6;6;5
76330;PMS7003;65148;51.912;15.570;2023-07-16T04:33:22;5;5;5
76330;PMS7003;65148;51.912;15.570;2023-07-16T04:48:23;7;7;7
76330;PMS7003;65148;51.912;15.570;2023-07-16T05:03:41;1;1;1
76330;PMS7003;65148;51.912;15.570;2023-07-16T05:18:42;4;4;4
76330;PMS7003;65148;51.912;15.570;2023-07-16T05:33:43;1;0;0
76330;PMS7003;65148;51.912;15.570;2023-07-16T05:48:43;0;0;0
76330;PMS7003;65148;51.912;15.570;2023-07-16T06:04:03;0;0;0
76330;PMS7003;65148;51.912;15.570;2023-07-16T06:19:04;1;1;1
76330;PMS7003;65148;51.912;15.570;2023-07-16T06:34:04;1;1;1
76330;PMS7003;65148;51.912;15.570;2023-07-16T06:49:05;2;2;1
76330;PMS7003;65148;51.912;15.570;2023-07-16T07:04:24;2;2;2
76330;PMS7003;65148;51.912;15.570;2023-07-16T07:19:25;2;2;1
76330;PMS7003;65148;51.912;15.570;2023-07-16T07:34:26;2;2;2
76330;PMS7003;65148;51.912;15.570;2023-07-16T07:49:27;3;3;3
76330;PMS7003;65148;51.912;15.570;2023-07-16T08:04:45;3;3;3
76330;PMS7003;65148;51.912;15.570;2023-07-16T08:19:46;2;2;2
76330;PMS7003;65148;51.912;15.570;2023-07-16T08:34:47;3;3;3
76330;PMS7003;65148;51.912;15.570;2023-07-16T08:49:54;3;3;3
76330;PMS7003;65148;51.912;15.570;2023-07-16T09:05:12;3;3;3
76330;PMS7003;65148;51.912;15.570;2023-07-16T09:20:16;4;4;3
76330;PMS7003;65148;51.912;15.570;2023-07-16T09:35:17;3;3;3
76330;PMS7003;65148;51.912;15.570;2023-07-16T09:50:18;2;2;2
76330;PMS7003;65148;51.912;15.570;2023-07-16T10:05:35;2;2;2
76330;PMS7003;65148;51.912;15.570;2023-07-16T10:20:37;1;1;0
76330;PMS7003;65148;51.912;15.570;2023-07-16T10:35:47;1;1;1
76330;PMS7003;65148;51.912;15.570;2023-07-16T10:51:14;4;4;3
76330;PMS7003;65148;51.912;15.570;2023-07-16T11:06:17;5;3;3
76330;PMS7003;65148;51.912;15.570;2023-07-16T11:21:19;4;4;4
76330;PMS7003;65148;51.912;15.570;2023-07-16T11:36:20;3;3;3
76330;PMS7003;65148;51.912;15.570;2023-07-16T11:51:21;3;3;2
76330;PMS7003;65148;51.912;15.570;2023-07-16T12:06:22;2;2;2
76330;PMS7003;65148;51.912;15.570;2023-07-16T12:21:23;1;1;1
76330;PMS7003;65148;51.912;15.570;2023-07-16T12:36:24;4;2;2
76330;PMS7003;65148;51.912;15.570;2023-07-16T12:51:25;1;1;0
76330;PMS7003;65148;51.912;15.570;2023-07-16T13:06:26;7;7;5
76330;PMS7003;65148;51.912;15.570;2023-07-16T13:21:55;2;1;1
76330;PMS7003;65148;51.912;15.570;2023-07-16T13:36:56;4;4;4
76330;PMS7003;65148;51.912;15.570;2023-07-16T13:51:56;1;1;0
76330;PMS7003;65148;51.912;15.570;2023-07-16T14:06:58;0;0;0
76330;PMS7003;65148;51.912;15.570;2023-07-16T14:21:59;2;2;2
76330;PMS7003;65148;51.912;15.570;2023-07-16T14:37:00;3;3;2
76330;PMS7003;65148;51.912;15.570;2023-07-16T14:52:01;2;2;2
76330;PMS7003;65148;51.912;15.570;2023-07-16T15:12:44;3;3;2
76330;PMS7003;65148;51.912;15.570;2023-07-16T15:27:45;2;2;1
76330;PMS7003;65148;51.912;15.570;2023-07-16T15:42:46;3;3;2
76330;PMS7003;65148;51.912;15.570;2023-07-16T15:57:53;1;1;1
76330;PMS7003;65148;51.912;15.570;2023-07-16T16:12:54;1;1;1
76330;PMS7003;65148;51.912;15.570;2023-07-16T16:27:55;4;2;1
76330;PMS7003;65148;51.912;15.570;2023-07-16T16:42:56;2;2;1
76330;PMS7003;65148;51.912;15.570;2023-07-16T16:57:57;4;4;3
76330;PMS7003;65148;51.912;15.570;2023-07-16T17:12:58;4;2;2
76330;PMS7003;65148;51.912;15.570;2023-07-16T17:27:59;0;0;0
76330;PMS7003;65148;51.912;15.570;2023-07-16T17:43:00;2;2;1
76330;PMS7003;65148;51.912;15.570;2023-07-16T17:58:26;4;4;3
76330;PMS7003;65148;51.912;15.570;2023-07-16T18:13:27;3;3;3
76330;PMS7003;65148;51.912;15.570;2023-07-16T18:28:28;2;2;1
76330;PMS7003;65148;51.912;15.570;2023-07-16T18:43:30;4;4;3
76330;PMS7003;65148;51.912;15.570;2023-07-16T18:58:31;4;4;3
76330;PMS7003;65148;51.912;15.570;2023-07-16T19:13:31;5;4;4
76330;PMS7003;65148;51.912;15.570;2023-07-16T19:28:32;4;4;3
76330;PMS7003;65148;51.912;15.570;2023-07-16T19:43:56;5;5;5
76330;PMS7003;65148;51.912;15.570;2023-07-16T19:58:56;4;4;3
76330;PMS7003;65148;51.912;15.570;2023-07-16T20:13:58;6;6;4
76330;PMS7003;65148;51.912;15.570;2023-07-16T20:28:59;3;3;3
76330;PMS7003;65148;51.912;15.570;2023-07-16T20:44:18;4;4;3
76330;PMS7003;65148;51.912;15.570;2023-07-16T20:59:18;5;4;4
76330;PMS7003;65148;51.912;15.570;2023-07-16T21:14:20;4;4;4
76330;PMS7003;65148;51.912;15.570;2023-07-16T21:29:20;6;5;4
76330;PMS7003;65148;51.912;15.570;2023-07-16T21:44:39;5;4;4
76330;PMS7003;65148;51.912;15.570;2023-07-16T21:59:40;5;5;4
76330;PMS7003;65148;51.912;15.570;2023-07-16T22:14:41;6;5;4
76330;PMS7003;65148;51.912;15.570;2023-07-16T22:29:42;5;4;4
76330;PMS7003;65148;51.912;15.570;2023-07-16T22:45:02;5;5;4
76330;PMS7003;65148;51.912;15.570;2023-07-16T23:00:03;6;6;5
76330;PMS7003;65148;51.912;15.570;2023-07-16T23:15:08;4;4;4
76330;PMS7003;65148;51.912;15.570;2023-07-16T23:30:11;6;5;5
76330;PMS7003;65148;51.912;15.570;2023-07-16T23:45:24;6;5;5
